sensor_id;sensor_type;location;lat;lon;timestamp;pressure;altitude;pressure_sealevel;temperature;humidity
36242;BME280;22283;42.748;12.732;2022-12-10T00:00:34;96702.53;;;13.73;100.00
36242;BME280;22283;42.748;12.732;2022-12-10T00:05:35;96705.03;;;13.74;100.00
36242;BME280;22283;42.748;12.732;2022-12-10T00:10:40;96701.88;;;13.71;100.00
36242;BME280;22283;42.748;12.732;2022-12-10T00:15:40;96685.44;;;13.75;100.00
36242;BME280;22283;42.748;12.732;2022-12-10T00:20:41;96689.25;;;13.73;100.00
36242;BME280;22283;42.748;12.732;2022-12-10T00:25:41;96677.97;;;13.71;100.00
36242;BME280;22283;42.748;12.732;2022-12-10T00:30:42;96667.31;;;13.71;100.00
36242;BME280;22283;42.748;12.732;2022-12-10T00:35:42;96668.81;;;13.73;100.00
36242;BME280;22283;42.748;12.732;2022-12-10T00:40:43;96674.47;;;13.78;100.00
36242;BME280;22283;42.748;12.732;2022-12-10T00:45:44;96666.81;;;13.67;100.00
36242;BME280;22283;42.748;12.732;2022-12-10T00:50:57;96657.53;;;13.71;100.00
36242;BME280;22283;42.748;12.732;2022-12-10T00:55:59;96668.16;;;13.71;100.00
36242;BME280;22283;42.748;12.732;2022-12-10T01:01:10;96647.22;;;13.68;100.00
36242;BME280;22283;42.748;12.732;2022-12-10T01:11:29;96638.94;;;13.63;100.00
36242;BME280;22283;42.748;12.732;2022-12-10T01:16:30;96639.25;;;13.60;100.00
36242;BME280;22283;42.748;12.732;2022-12-10T01:21:31;96643.06;;;13.66;100.00
36242;BME280;22283;42.748;12.732;2022-12-10T01:26:33;96628.13;;;13.65;100.00
36242;BME280;22283;42.748;12.732;2022-12-10T01:31:36;96626.47;;;13.72;100.00
36242;BME280;22283;42.748;12.732;2022-12-10T01:36:42;96618.16;;;13.67;100.00
36242;BME280;22283;42.748;12.732;2022-12-10T01:42:04;96630.63;;;13.58;100.00
36242;BME280;22283;42.748;12.732;2022-12-10T01:47:05;96614.84;;;13.57;100.00
36242;BME280;22283;42.748;12.732;2022-12-10T01:52:09;96611.34;;;13.72;100.00
36242;BME280;22283;42.748;12.732;2022-12-10T01:57:16;96609.16;;;13.76;100.00
36242;BME280;22283;42.748;12.732;2022-12-10T02:07:46;96576.63;;;13.74;100.00
36242;BME280;22283;42.748;12.732;2022-12-10T02:18:09;96563.50;;;13.72;100.00
36242;BME280;22283;42.748;12.732;2022-12-10T02:23:19;96552.38;;;13.69;100.00
36242;BME280;22283;42.748;12.732;2022-12-10T02:28:39;96539.59;;;13.64;100.00
36242;BME280;22283;42.748;12.732;2022-12-10T02:33:47;96534.47;;;13.63;100.00
36242;BME280;22283;42.748;12.732;2022-12-10T02:38:50;96519.00;;;13.66;100.00
36242;BME280;22283;42.748;12.732;2022-12-10T02:43:56;96514.53;;;13.59;100.00
36242;BME280;22283;42.748;12.732;2022-12-10T02:48:59;96518.53;;;13.55;100.00
36242;BME280;22283;42.748;12.732;2022-12-10T02:54:06;96504.59;;;13.52;100.00
36242;BME280;22283;42.748;12.732;2022-12-10T02:59:18;96488.84;;;13.43;100.00
36242;BME280;22283;42.748;12.732;2022-12-10T03:15:11;96454.81;;;13.38;100.00
36242;BME280;22283;42.748;12.732;2022-12-10T03:20:14;96452.81;;;13.40;100.00
36242;BME280;22283;42.748;12.732;2022-12-10T03:25:19;96436.06;;;13.40;100.00
36242;BME280;22283;42.748;12.732;2022-12-10T03:30:22;96425.47;;;13.32;100.00
36242;BME280;22283;42.748;12.732;2022-12-10T03:35:23;96419.44;;;13.38;100.00
36242;BME280;22283;42.748;12.732;2022-12-10T03:40:24;96420.44;;;13.37;100.00
36242;BME280;22283;42.748;12.732;2022-12-10T03:45:25;96426.94;;;13.34;100.00
36242;BME280;22283;42.748;12.732;2022-12-10T03:50:26;96401.56;;;13.32;100.00
36242;BME280;22283;42.748;12.732;2022-12-10T03:55:26;96400.25;;;13.27;100.00
36242;BME280;22283;42.748;12.732;2022-12-10T04:00:27;96408.22;;;13.27;100.00
36242;BME280;22283;42.748;12.732;2022-12-10T04:05:28;96386.28;;;13.25;100.00
36242;BME280;22283;42.748;12.732;2022-12-10T04:10:29;96373.69;;;13.19;100.00
36242;BME280;22283;42.748;12.732;2022-12-10T04:15:29;96370.53;;;13.16;100.00
36242;BME280;22283;42.748;12.732;2022-12-10T04:20:49;96332.56;;;13.07;100.00
36242;BME280;22283;42.748;12.732;2022-12-10T04:26:08;96344.53;;;13.03;100.00
36242;BME280;22283;42.748;12.732;2022-12-10T04:31:27;96334.56;;;13.05;100.00
36242;BME280;22283;42.748;12.732;2022-12-10T04:36:28;96317.25;;;13.25;100.00
36242;BME280;22283;42.748;12.732;2022-12-10T04:41:28;96335.69;;;13.27;100.00
36242;BME280;22283;42.748;12.732;2022-12-10T04:46:30;96330.81;;;13.39;100.00
36242;BME280;22283;42.748;12.732;2022-12-10T04:51:32;96322.13;;;13.45;100.00
36242;BME280;22283;42.748;12.732;2022-12-10T04:56:33;96324.16;;;13.43;100.00
36242;BME280;22283;42.748;12.732;2022-12-10T05:01:35;96309.22;;;13.34;100.00
36242;BME280;22283;42.748;12.732;2022-12-10T05:06:36;96304.78;;;13.26;100.00
36242;BME280;22283;42.748;12.732;2022-12-10T05:11:37;96284.72;;;13.23;100.00
36242;BME280;22283;42.748;12.732;2022-12-10T05:16:37;96303.97;;;13.17;100.00
36242;BME280;22283;42.748;12.732;2022-12-10T05:21:38;96304.16;;;13.24;100.00
36242;BME280;22283;42.748;12.732;2022-12-10T05:26:57;96307.59;;;13.33;100.00
36242;BME280;22283;42.748;12.732;2022-12-10T05:31:58;96298.50;;;13.27;100.00
36242;BME280;22283;42.748;12.732;2022-12-10T05:36:59;96290.34;;;13.28;100.00
36242;BME280;22283;42.748;12.732;2022-12-10T05:42:00;96300.78;;;13.30;100.00
36242;BME280;22283;42.748;12.732;2022-12-10T05:47:00;96288.13;;;13.40;100.00
36242;BME280;22283;42.748;12.732;2022-12-10T05:52:01;96313.34;;;13.44;100.00
36242;BME280;22283;42.748;12.732;2022-12-10T05:57:02;96317.81;;;13.44;100.00
36242;BME280;22283;42.748;12.732;2022-12-10T06:02:02;96331.94;;;13.44;100.00
36242;BME280;22283;42.748;12.732;2022-12-10T06:07:03;96331.94;;;13.44;100.00
36242;BME280;22283;42.748;12.732;2022-12-10T06:12:04;96339.47;;;13.33;100.00
36242;BME280;22283;42.748;12.732;2022-12-10T06:17:05;96338.97;;;13.29;100.00
36242;BME280;22283;42.748;12.732;2022-12-10T06:22:05;96333.63;;;13.37;100.00
36242;BME280;22283;42.748;12.732;2022-12-10T06:27:07;96359.81;;;13.48;100.00
36242;BME280;22283;42.748;12.732;2022-12-10T06:32:08;96352.69;;;13.41;100.00
36242;BME280;22283;42.748;12.732;2022-12-10T06:37:09;96368.97;;;13.38;100.00
36242;BME280;22283;42.748;12.732;2022-12-10T06:42:09;96372.69;;;13.28;100.00
36242;BME280;22283;42.748;12.732;2022-12-10T06:47:10;96364.06;;;13.26;100.00
36242;BME280;22283;42.748;12.732;2022-12-10T06:52:11;96364.72;;;13.20;100.00
36242;BME280;22283;42.748;12.732;2022-12-10T06:57:12;96361.06;;;13.13;100.00
36242;BME280;22283;42.748;12.732;2022-12-10T07:02:13;96347.31;;;13.10;100.00
36242;BME280;22283;42.748;12.732;2022-12-10T07:07:14;96334.22;;;13.08;100.00
36242;BME280;22283;42.748;12.732;2022-12-10T07:12:15;96319.63;;;13.04;100.00
36242;BME280;22283;42.748;12.732;2022-12-10T07:17:16;96340.16;;;13.10;100.00
36242;BME280;22283;42.748;12.732;2022-12-10T07:22:16;96338.25;;;12.96;100.00
36242;BME280;22283;42.748;12.732;2022-12-10T07:27:17;96366.44;;;12.97;100.00
36242;BME280;22283;42.748;12.732;2022-12-10T07:32:18;96355.63;;;12.98;100.00
36242;BME280;22283;42.748;12.732;2022-12-10T07:37:19;96358.16;;;12.92;100.00
36242;BME280;22283;42.748;12.732;2022-12-10T07:42:19;96343.25;;;12.91;100.00
36242;BME280;22283;42.748;12.732;2022-12-10T07:47:20;96328.28;;;12.90;100.00
36242;BME280;22283;42.748;12.732;2022-12-10T07:52:21;96330.97;;;12.82;100.00
36242;BME280;22283;42.748;12.732;2022-12-10T07:57:21;96331.16;;;12.80;100.00
36242;BME280;22283;42.748;12.732;2022-12-10T08:02:22;96334.81;;;12.79;100.00
36242;BME280;22283;42.748;12.732;2022-12-10T08:07:22;96322.00;;;12.83;100.00
36242;BME280;22283;42.748;12.732;2022-12-10T08:12:23;96325.31;;;12.93;100.00
36242;BME280;22283;42.748;12.732;2022-12-10T08:17:24;96315.50;;;12.93;100.00
36242;BME280;22283;42.748;12.732;2022-12-10T08:22:24;96291.00;;;12.83;100.00
36242;BME280;22283;42.748;12.732;2022-12-10T08:27:25;96305.19;;;12.98;100.00
36242;BME280;22283;42.748;12.732;2022-12-10T08:32:25;96320.19;;;12.91;100.00
36242;BME280;22283;42.748;12.732;2022-12-10T08:37:26;96324.66;;;12.91;100.00
36242;BME280;22283;42.748;12.732;2022-12-10T08:42:27;96327.81;;;12.86;100.00
36242;BME280;22283;42.748;12.732;2022-12-10T08:47:27;96321.38;;;12.80;100.00
36242;BME280;22283;42.748;12.732;2022-12-10T08:52:29;96314.75;;;12.76;100.00
36242;BME280;22283;42.748;12.732;2022-12-10T08:57:30;96321.06;;;12.75;100.00
36242;BME280;22283;42.748;12.732;2022-12-10T09:02:30;96305.47;;;12.72;100.00
36242;BME280;22283;42.748;12.732;2022-12-10T09:07:31;96306.47;;;12.71;100.00
36242;BME280;22283;42.748;12.732;2022-12-10T09:12:35;96304.41;;;12.90;100.00
36242;BME280;22283;42.748;12.732;2022-12-10T09:17:36;96300.38;;;13.02;100.00
36242;BME280;22283;42.748;12.732;2022-12-10T09:22:39;96301.00;;;13.12;100.00
36242;BME280;22283;42.748;12.732;2022-12-10T09:27:41;96292.06;;;13.05;100.00
36242;BME280;22283;42.748;12.732;2022-12-10T09:32:41;96293.38;;;13.09;100.00
36242;BME280;22283;42.748;12.732;2022-12-10T09:37:42;96269.84;;;13.06;100.00
36242;BME280;22283;42.748;12.732;2022-12-10T09:42:54;96274.31;;;13.05;100.00
36242;BME280;22283;42.748;12.732;2022-12-10T09:53:20;96261.63;;;12.85;100.00
36242;BME280;22283;42.748;12.732;2022-12-10T09:58:24;96273.94;;;12.77;100.00
36242;BME280;22283;42.748;12.732;2022-12-10T10:03:26;96281.41;;;12.74;100.00
36242;BME280;22283;42.748;12.732;2022-12-10T10:18:55;96256.13;;;12.39;100.00
36242;BME280;22283;42.748;12.732;2022-12-10T10:23:58;96246.53;;;12.29;100.00
36242;BME280;22283;42.748;12.732;2022-12-10T10:29:00;96222.69;;;12.21;100.00
36242;BME280;22283;42.748;12.732;2022-12-10T10:34:12;96223.03;;;12.18;100.00
36242;BME280;22283;42.748;12.732;2022-12-10T10:44:19;96192.41;;;12.16;100.00
36242;BME280;22283;42.748;12.732;2022-12-10T10:49:28;96164.69;;;12.18;100.00
36242;BME280;22283;42.748;12.732;2022-12-10T10:54:42;96168.84;;;12.21;100.00
36242;BME280;22283;42.748;12.732;2022-12-10T10:59:42;96168.84;;;12.21;100.00
36242;BME280;22283;42.748;12.732;2022-12-10T11:04:49;96145.50;;;12.16;100.00
36242;BME280;22283;42.748;12.732;2022-12-10T11:09:52;96131.88;;;12.19;100.00
36242;BME280;22283;42.748;12.732;2022-12-10T11:14:54;96113.00;;;12.22;100.00
36242;BME280;22283;42.748;12.732;2022-12-10T11:25:01;96088.78;;;12.25;100.00
36242;BME280;22283;42.748;12.732;2022-12-10T11:30:13;96090.16;;;12.21;100.00
36242;BME280;22283;42.748;12.732;2022-12-10T11:35:37;96098.47;;;12.10;100.00
36242;BME280;22283;42.748;12.732;2022-12-10T11:41:02;96072.03;;;11.94;100.00
36242;BME280;22283;42.748;12.732;2022-12-10T11:51:59;96039.59;;;11.67;100.00
36242;BME280;22283;42.748;12.732;2022-12-10T11:57:08;96041.28;;;11.52;100.00
36242;BME280;22283;42.748;12.732;2022-12-10T12:13:05;96019.81;;;11.47;100.00
36242;BME280;22283;42.748;12.732;2022-12-10T12:18:36;96029.38;;;11.48;100.00
36242;BME280;22283;42.748;12.732;2022-12-10T12:29:10;96019.81;;;11.39;100.00
36242;BME280;22283;42.748;12.732;2022-12-10T12:34:25;96016.53;;;11.37;100.00
36242;BME280;22283;42.748;12.732;2022-12-10T12:39:32;95992.69;;;11.37;100.00
36242;BME280;22283;42.748;12.732;2022-12-10T12:49:57;95960.94;;;11.37;100.00
36242;BME280;22283;42.748;12.732;2022-12-10T12:55:04;95942.88;;;11.32;100.00
36242;BME280;22283;42.748;12.732;2022-12-10T13:00:12;95958.94;;;11.30;100.00
36242;BME280;22283;42.748;12.732;2022-12-10T13:05:22;95957.97;;;11.23;100.00
36242;BME280;22283;42.748;12.732;2022-12-10T13:10:25;95958.66;;;11.17;100.00
36242;BME280;22283;42.748;12.732;2022-12-10T13:15:36;95958.00;;;11.15;100.00
36242;BME280;22283;42.748;12.732;2022-12-10T13:20:41;95962.13;;;11.18;100.00
36242;BME280;22283;42.748;12.732;2022-12-10T13:25:56;95965.09;;;11.23;100.00
36242;BME280;22283;42.748;12.732;2022-12-10T13:31:36;95965.28;;;11.21;100.00
36242;BME280;22283;42.748;12.732;2022-12-10T13:37:04;95962.94;;;11.26;100.00
36242;BME280;22283;42.748;12.732;2022-12-10T14:08:33;95993.94;;;11.65;100.00
36242;BME280;22283;42.748;12.732;2022-12-10T14:13:42;95997.94;;;11.61;100.00
36242;BME280;22283;42.748;12.732;2022-12-10T14:18:52;96006.50;;;11.63;100.00
36242;BME280;22283;42.748;12.732;2022-12-10T14:23:53;95996.59;;;11.65;100.00
36242;BME280;22283;42.748;12.732;2022-12-10T14:28:57;95999.56;;;11.62;100.00
36242;BME280;22283;42.748;12.732;2022-12-10T14:34:02;96005.53;;;11.56;100.00
36242;BME280;22283;42.748;12.732;2022-12-10T14:39:04;96000.25;;;11.56;100.00
36242;BME280;22283;42.748;12.732;2022-12-10T14:44:05;96005.06;;;11.52;100.00
36242;BME280;22283;42.748;12.732;2022-12-10T14:49:17;96006.22;;;11.50;100.00
36242;BME280;22283;42.748;12.732;2022-12-10T14:54:30;96011.69;;;11.40;100.00
36242;BME280;22283;42.748;12.732;2022-12-10T14:59:41;96013.22;;;11.26;100.00
36242;BME280;22283;42.748;12.732;2022-12-10T15:04:45;96011.59;;;11.25;100.00
36242;BME280;22283;42.748;12.732;2022-12-10T15:09:49;96006.63;;;11.14;100.00
36242;BME280;22283;42.748;12.732;2022-12-10T15:14:50;96002.16;;;11.15;100.00
36242;BME280;22283;42.748;12.732;2022-12-10T15:19:50;95993.72;;;11.11;100.00
36242;BME280;22283;42.748;12.732;2022-12-10T15:24:51;96006.47;;;11.07;100.00
36242;BME280;22283;42.748;12.732;2022-12-10T15:29:52;95996.56;;;11.01;100.00
36242;BME280;22283;42.748;12.732;2022-12-10T15:35:05;96013.25;;;11.02;100.00
36242;BME280;22283;42.748;12.732;2022-12-10T15:40:28;96013.09;;;11.03;100.00
36242;BME280;22283;42.748;12.732;2022-12-10T15:45:42;96010.28;;;10.97;100.00
36242;BME280;22283;42.748;12.732;2022-12-10T15:50:44;96010.63;;;10.94;100.00
36242;BME280;22283;42.748;12.732;2022-12-10T15:55:46;96023.16;;;10.92;100.00
36242;BME280;22283;42.748;12.732;2022-12-10T16:00:46;96026.50;;;10.86;100.00
36242;BME280;22283;42.748;12.732;2022-12-10T16:05:47;96023.84;;;10.86;100.00
36242;BME280;22283;42.748;12.732;2022-12-10T16:10:50;96024.19;;;10.82;100.00
36242;BME280;22283;42.748;12.732;2022-12-10T16:15:58;96024.50;;;10.79;100.00
36242;BME280;22283;42.748;12.732;2022-12-10T16:21:00;96026.16;;;10.80;100.00
36242;BME280;22283;42.748;12.732;2022-12-10T16:26:01;96028.78;;;10.72;100.00
36242;BME280;22283;42.748;12.732;2022-12-10T16:31:02;96021.22;;;10.69;100.00
36242;BME280;22283;42.748;12.732;2022-12-10T16:36:03;96042.69;;;10.74;100.00
36242;BME280;22283;42.748;12.732;2022-12-10T16:41:11;96033.44;;;10.70;100.00
36242;BME280;22283;42.748;12.732;2022-12-10T16:46:14;96037.06;;;10.69;100.00
36242;BME280;22283;42.748;12.732;2022-12-10T16:51:20;96044.66;;;10.72;100.00
36242;BME280;22283;42.748;12.732;2022-12-10T16:56:22;96046.78;;;10.69;100.00
36242;BME280;22283;42.748;12.732;2022-12-10T17:01:25;96053.28;;;10.74;100.00
36242;BME280;22283;42.748;12.732;2022-12-10T17:06:31;96057.56;;;10.75;100.00
36242;BME280;22283;42.748;12.732;2022-12-10T17:11:41;96054.91;;;10.75;100.00
36242;BME280;22283;42.748;12.732;2022-12-10T17:16:44;96049.28;;;10.70;100.00
36242;BME280;22283;42.748;12.732;2022-12-10T17:21:45;96062.19;;;10.73;100.00
36242;BME280;22283;42.748;12.732;2022-12-10T17:26:47;96078.06;;;10.73;100.00
36242;BME280;22283;42.748;12.732;2022-12-10T17:31:48;96089.97;;;10.77;100.00
36242;BME280;22283;42.748;12.732;2022-12-10T17:36:52;96103.53;;;10.74;100.00
36242;BME280;22283;42.748;12.732;2022-12-10T17:41:52;96118.06;;;10.70;100.00
36242;BME280;22283;42.748;12.732;2022-12-10T17:46:53;96114.88;;;10.58;100.00
36242;BME280;22283;42.748;12.732;2022-12-10T17:51:54;96129.25;;;10.56;100.00
36242;BME280;22283;42.748;12.732;2022-12-10T17:56:59;96120.97;;;10.51;100.00
36242;BME280;22283;42.748;12.732;2022-12-10T18:02:00;96111.53;;;10.48;100.00
36242;BME280;22283;42.748;12.732;2022-12-10T18:07:01;96129.22;;;10.48;100.00
36242;BME280;22283;42.748;12.732;2022-12-10T18:12:02;96117.81;;;10.39;100.00
36242;BME280;22283;42.748;12.732;2022-12-10T18:17:03;96134.78;;;10.37;100.00
36242;BME280;22283;42.748;12.732;2022-12-10T18:22:04;96141.09;;;10.36;100.00
36242;BME280;22283;42.748;12.732;2022-12-10T18:27:05;96151.47;;;10.37;100.00
36242;BME280;22283;42.748;12.732;2022-12-10T18:32:06;96150.16;;;10.33;100.00
36242;BME280;22283;42.748;12.732;2022-12-10T18:37:10;96149.66;;;10.29;100.00
36242;BME280;22283;42.748;12.732;2022-12-10T18:42:11;96146.63;;;10.24;100.00
36242;BME280;22283;42.748;12.732;2022-12-10T18:47:11;96147.59;;;10.23;100.00
36242;BME280;22283;42.748;12.732;2022-12-10T18:52:12;96150.88;;;10.17;100.00
36242;BME280;22283;42.748;12.732;2022-12-10T18:57:13;96148.19;;;10.09;100.00
36242;BME280;22283;42.748;12.732;2022-12-10T19:02:14;96154.69;;;9.89;100.00
36242;BME280;22283;42.748;12.732;2022-12-10T19:07:14;96153.59;;;9.73;100.00
36242;BME280;22283;42.748;12.732;2022-12-10T19:12:15;96149.84;;;9.58;100.00
36242;BME280;22283;42.748;12.732;2022-12-10T19:17:16;96149.50;;;9.53;100.00
36242;BME280;22283;42.748;12.732;2022-12-10T19:22:16;96145.81;;;9.46;100.00
36242;BME280;22283;42.748;12.732;2022-12-10T19:27:17;96154.41;;;9.48;100.00
36242;BME280;22283;42.748;12.732;2022-12-10T19:32:18;96137.63;;;9.31;100.00
36242;BME280;22283;42.748;12.732;2022-12-10T19:37:18;96135.97;;;9.30;100.00
36242;BME280;22283;42.748;12.732;2022-12-10T19:42:19;96135.88;;;9.40;100.00
36242;BME280;22283;42.748;12.732;2022-12-10T19:47:20;96135.00;;;9.13;100.00
36242;BME280;22283;42.748;12.732;2022-12-10T19:52:21;96144.72;;;8.95;100.00
36242;BME280;22283;42.748;12.732;2022-12-10T19:57:22;96143.06;;;8.94;100.00
36242;BME280;22283;42.748;12.732;2022-12-10T20:02:23;96148.25;;;8.85;100.00
36242;BME280;22283;42.748;12.732;2022-12-10T20:07:23;96162.56;;;8.65;100.00
36242;BME280;22283;42.748;12.732;2022-12-10T20:12:24;96178.84;;;8.51;100.00
36242;BME280;22283;42.748;12.732;2022-12-10T20:17:25;96169.22;;;8.42;100.00
36242;BME280;22283;42.748;12.732;2022-12-10T20:22:26;96181.28;;;8.34;100.00
36242;BME280;22283;42.748;12.732;2022-12-10T20:27:26;96191.81;;;8.34;100.00
36242;BME280;22283;42.748;12.732;2022-12-10T20:32:27;96203.19;;;8.45;100.00
36242;BME280;22283;42.748;12.732;2022-12-10T20:37:28;96209.53;;;8.52;100.00
36242;BME280;22283;42.748;12.732;2022-12-10T20:42:29;96207.28;;;8.57;100.00
36242;BME280;22283;42.748;12.732;2022-12-10T20:47:29;96226.81;;;8.64;100.00
36242;BME280;22283;42.748;12.732;2022-12-10T20:52:30;96207.13;;;8.58;100.00
36242;BME280;22283;42.748;12.732;2022-12-10T20:57:31;96213.53;;;8.83;100.00
36242;BME280;22283;42.748;12.732;2022-12-10T21:02:31;96209.63;;;8.88;100.00
36242;BME280;22283;42.748;12.732;2022-12-10T21:07:32;96212.34;;;8.96;100.00
36242;BME280;22283;42.748;12.732;2022-12-10T21:12:33;96208.00;;;8.95;100.00
36242;BME280;22283;42.748;12.732;2022-12-10T21:17:33;96213.00;;;8.98;100.00
36242;BME280;22283;42.748;12.732;2022-12-10T21:22:34;96212.53;;;9.02;100.00
36242;BME280;22283;42.748;12.732;2022-12-10T21:27:36;96218.97;;;9.00;100.00
36242;BME280;22283;42.748;12.732;2022-12-10T21:32:37;96208.00;;;8.95;100.00
36242;BME280;22283;42.748;12.732;2022-12-10T21:37:38;96200.75;;;8.79;100.00
36242;BME280;22283;42.748;12.732;2022-12-10T21:42:39;96219.09;;;8.80;100.00
36242;BME280;22283;42.748;12.732;2022-12-10T21:47:59;96213.56;;;8.74;100.00
36242;BME280;22283;42.748;12.732;2022-12-10T21:53:01;96219.34;;;8.87;100.00
36242;BME280;22283;42.748;12.732;2022-12-10T21:58:02;96214.72;;;8.89;100.00
36242;BME280;22283;42.748;12.732;2022-12-10T22:03:03;96221.81;;;8.89;100.00
36242;BME280;22283;42.748;12.732;2022-12-10T22:08:04;96227.00;;;8.98;100.00
36242;BME280;22283;42.748;12.732;2022-12-10T22:13:05;96235.66;;;8.91;100.00
36242;BME280;22283;42.748;12.732;2022-12-10T22:18:10;96259.56;;;8.89;100.00
36242;BME280;22283;42.748;12.732;2022-12-10T22:23:14;96259.72;;;8.88;100.00
36242;BME280;22283;42.748;12.732;2022-12-10T22:28:17;96250.13;;;8.86;100.00
36242;BME280;22283;42.748;12.732;2022-12-10T22:33:18;96251.50;;;8.91;100.00
36242;BME280;22283;42.748;12.732;2022-12-10T22:38:19;96251.19;;;8.94;100.00
36242;BME280;22283;42.748;12.732;2022-12-10T22:43:19;96253.47;;;8.89;100.00
36242;BME280;22283;42.748;12.732;2022-12-10T22:48:20;96259.03;;;8.85;100.00
36242;BME280;22283;42.748;12.732;2022-12-10T22:53:21;96248.22;;;8.79;100.00
36242;BME280;22283;42.748;12.732;2022-12-10T22:58:22;96257.94;;;8.78;100.00
36242;BME280;22283;42.748;12.732;2022-12-10T23:03:24;96256.56;;;8.74;100.00
36242;BME280;22283;42.748;12.732;2022-12-10T23:08:25;96259.75;;;8.78;100.00
36242;BME280;22283;42.748;12.732;2022-12-10T23:13:27;96262.09;;;8.81;100.00
36242;BME280;22283;42.748;12.732;2022-12-10T23:18:28;96270.84;;;8.81;100.00
36242;BME280;22283;42.748;12.732;2022-12-10T23:23:31;96272.28;;;8.94;100.00
36242;BME280;22283;42.748;12.732;2022-12-10T23:28:32;96261.09;;;8.92;100.00
36242;BME280;22283;42.748;12.732;2022-12-10T23:33:33;96275.34;;;8.99;100.00
36242;BME280;22283;42.748;12.732;2022-12-10T23:38:34;96258.91;;;9.05;100.00
36242;BME280;22283;42.748;12.732;2022-12-10T23:43:35;96256.66;;;9.10;100.00
36242;BME280;22283;42.748;12.732;2022-12-10T23:48:36;96266.91;;;9.13;100.00
36242;BME280;22283;42.748;12.732;2022-12-10T23:53:36;96267.97;;;9.20;100.00
36242;BME280;22283;42.748;12.732;2022-12-10T23:58:37;96280.97;;;9.31;100.00
